sensor_id;sensor_type;location;lat;lon;timestamp;temperature;humidity
36856;DHT22;22788;51.434;6.786;2023-11-19T00:15:15;9.60;99.90
36856;DHT22;22788;51.434;6.786;2023-11-19T00:17:42;9.50;99.90
36856;DHT22;22788;51.434;6.786;2023-11-19T00:20:08;9.50;99.90
36856;DHT22;22788;51.434;6.786;2023-11-19T00:25:00;9.50;99.90
36856;DHT22;22788;51.434;6.786;2023-11-19T00:27:25;9.50;99.90
36856;DHT22;22788;51.434;6.786;2023-11-19T00:29:52;9.40;99.90
36856;DHT22;22788;51.434;6.786;2023-11-19T00:32:18;9.40;99.90
36856;DHT22;22788;51.434;6.786;2023-11-19T00:34:44;9.40;99.90
36856;DHT22;22788;51.434;6.786;2023-11-19T00:37:10;9.50;99.90
36856;DHT22;22788;51.434;6.786;2023-11-19T00:39:35;9.50;99.90
36856;DHT22;22788;51.434;6.786;2023-11-19T00:42:01;9.50;99.90
36856;DHT22;22788;51.434;6.786;2023-11-19T00:44:26;9.50;99.90
36856;DHT22;22788;51.434;6.786;2023-11-19T00:46:53;9.60;99.90
36856;DHT22;22788;51.434;6.786;2023-11-19T00:49:19;9.60;99.90
36856;DHT22;22788;51.434;6.786;2023-11-19T00:51:45;9.70;99.90
36856;DHT22;22788;51.434;6.786;2023-11-19T00:54:10;9.70;99.90
36856;DHT22;22788;51.434;6.786;2023-11-19T00:56:36;9.70;99.90
36856;DHT22;22788;51.434;6.786;2023-11-19T00:59:01;9.70;99.90
36856;DHT22;22788;51.434;6.786;2023-11-19T01:01:27;9.70;99.90
36856;DHT22;22788;51.434;6.786;2023-11-19T01:03:54;9.70;99.90
36856;DHT22;22788;51.434;6.786;2023-11-19T01:06:27;9.80;99.90
36856;DHT22;22788;51.434;6.786;2023-11-19T01:08:53;9.70;99.90
36856;DHT22;22788;51.434;6.786;2023-11-19T01:11:21;9.80;99.90
36856;DHT22;22788;51.434;6.786;2023-11-19T01:13:47;9.90;99.90
36856;DHT22;22788;51.434;6.786;2023-11-19T01:16:13;9.80;99.90
36856;DHT22;22788;51.434;6.786;2023-11-19T01:18:39;9.90;99.90
36856;DHT22;22788;51.434;6.786;2023-11-19T01:21:06;9.90;99.90
36856;DHT22;22788;51.434;6.786;2023-11-19T01:23:33;9.90;99.90
36856;DHT22;22788;51.434;6.786;2023-11-19T01:25:59;9.90;99.90
36856;DHT22;22788;51.434;6.786;2023-11-19T01:28:24;9.90;99.90
36856;DHT22;22788;51.434;6.786;2023-11-19T01:30:50;9.90;99.90
36856;DHT22;22788;51.434;6.786;2023-11-19T01:33:16;9.90;99.90
36856;DHT22;22788;51.434;6.786;2023-11-19T01:35:41;9.90;99.90
36856;DHT22;22788;51.434;6.786;2023-11-19T01:38:08;10.00;99.90
36856;DHT22;22788;51.434;6.786;2023-11-19T01:40:34;10.00;99.90
36856;DHT22;22788;51.434;6.786;2023-11-19T01:43:00;10.00;99.90
36856;DHT22;22788;51.434;6.786;2023-11-19T01:45:28;10.00;99.90
36856;DHT22;22788;51.434;6.786;2023-11-19T01:47:53;10.00;99.90
36856;DHT22;22788;51.434;6.786;2023-11-19T01:50:20;10.00;99.90
36856;DHT22;22788;51.434;6.786;2023-11-19T01:52:46;10.00;99.90
36856;DHT22;22788;51.434;6.786;2023-11-19T01:55:13;10.00;99.90
36856;DHT22;22788;51.434;6.786;2023-11-19T01:57:39;10.00;99.90
36856;DHT22;22788;51.434;6.786;2023-11-19T02:00:07;10.00;99.90
36856;DHT22;22788;51.434;6.786;2023-11-19T02:02:34;10.10;99.90
36856;DHT22;22788;51.434;6.786;2023-11-19T02:05:00;10.00;99.90
36856;DHT22;22788;51.434;6.786;2023-11-19T02:07:25;10.00;99.90
36856;DHT22;22788;51.434;6.786;2023-11-19T02:09:51;10.00;99.90
36856;DHT22;22788;51.434;6.786;2023-11-19T02:12:18;10.10;99.90
36856;DHT22;22788;51.434;6.786;2023-11-19T02:14:44;10.10;99.90
36856;DHT22;22788;51.434;6.786;2023-11-19T02:17:24;10.10;99.90
36856;DHT22;22788;51.434;6.786;2023-11-19T02:19:50;10.20;99.90
36856;DHT22;22788;51.434;6.786;2023-11-19T02:22:16;10.20;99.90
36856;DHT22;22788;51.434;6.786;2023-11-19T02:24:41;10.10;99.90
36856;DHT22;22788;51.434;6.786;2023-11-19T02:27:13;10.10;99.90
36856;DHT22;22788;51.434;6.786;2023-11-19T02:29:42;10.10;99.90
36856;DHT22;22788;51.434;6.786;2023-11-19T02:32:08;10.10;99.90
36856;DHT22;22788;51.434;6.786;2023-11-19T02:34:33;10.10;99.90
36856;DHT22;22788;51.434;6.786;2023-11-19T02:36:59;10.10;99.90
36856;DHT22;22788;51.434;6.786;2023-11-19T02:39:28;10.20;99.90
36856;DHT22;22788;51.434;6.786;2023-11-19T02:41:53;10.20;99.90
36856;DHT22;22788;51.434;6.786;2023-11-19T02:44:19;10.00;99.90
36856;DHT22;22788;51.434;6.786;2023-11-19T02:46:46;10.10;99.90
36856;DHT22;22788;51.434;6.786;2023-11-19T02:49:11;10.30;99.90
36856;DHT22;22788;51.434;6.786;2023-11-19T02:51:37;10.40;99.90
36856;DHT22;22788;51.434;6.786;2023-11-19T02:54:03;10.40;99.90
36856;DHT22;22788;51.434;6.786;2023-11-19T02:56:28;10.40;99.90
36856;DHT22;22788;51.434;6.786;2023-11-19T02:58:54;10.30;99.90
36856;DHT22;22788;51.434;6.786;2023-11-19T03:01:23;10.30;99.90
36856;DHT22;22788;51.434;6.786;2023-11-19T03:03:50;10.30;99.90
36856;DHT22;22788;51.434;6.786;2023-11-19T03:11:08;11.00;99.90
36856;DHT22;22788;51.434;6.786;2023-11-19T03:13:33;10.60;99.90
36856;DHT22;22788;51.434;6.786;2023-11-19T03:15:59;10.30;99.90
36856;DHT22;22788;51.434;6.786;2023-11-19T03:18:25;10.50;99.90
36856;DHT22;22788;51.434;6.786;2023-11-19T03:20:52;10.50;99.90
36856;DHT22;22788;51.434;6.786;2023-11-19T03:23:17;10.50;99.90
36856;DHT22;22788;51.434;6.786;2023-11-19T03:25:43;10.20;99.90
36856;DHT22;22788;51.434;6.786;2023-11-19T03:28:08;10.70;99.90
36856;DHT22;22788;51.434;6.786;2023-11-19T03:30:34;10.70;99.90
36856;DHT22;22788;51.434;6.786;2023-11-19T03:33:00;10.70;99.90
36856;DHT22;22788;51.434;6.786;2023-11-19T03:35:25;11.10;99.90
36856;DHT22;22788;51.434;6.786;2023-11-19T03:37:52;10.60;99.90
36856;DHT22;22788;51.434;6.786;2023-11-19T03:40:18;10.50;99.90
36856;DHT22;22788;51.434;6.786;2023-11-19T03:42:44;10.50;99.90
36856;DHT22;22788;51.434;6.786;2023-11-19T03:45:10;10.40;99.90
36856;DHT22;22788;51.434;6.786;2023-11-19T03:57:21;10.40;99.90
36856;DHT22;22788;51.434;6.786;2023-11-19T03:59:47;10.40;99.90
36856;DHT22;22788;51.434;6.786;2023-11-19T04:02:13;10.30;99.90
36856;DHT22;22788;51.434;6.786;2023-11-19T04:04:38;10.40;99.90
36856;DHT22;22788;51.434;6.786;2023-11-19T04:07:05;10.30;99.90
36856;DHT22;22788;51.434;6.786;2023-11-19T04:09:31;10.30;99.90
36856;DHT22;22788;51.434;6.786;2023-11-19T04:11:58;10.30;99.90
36856;DHT22;22788;51.434;6.786;2023-11-19T04:14:23;10.30;99.90
36856;DHT22;22788;51.434;6.786;2023-11-19T04:16:49;10.30;99.90
36856;DHT22;22788;51.434;6.786;2023-11-19T04:19:14;10.40;99.90
36856;DHT22;22788;51.434;6.786;2023-11-19T04:21:40;10.30;99.90
36856;DHT22;22788;51.434;6.786;2023-11-19T04:24:06;10.30;99.90
36856;DHT22;22788;51.434;6.786;2023-11-19T04:26:32;10.30;99.90
36856;DHT22;22788;51.434;6.786;2023-11-19T04:28:59;10.40;99.90
36856;DHT22;22788;51.434;6.786;2023-11-19T04:31:29;10.40;99.90
36856;DHT22;22788;51.434;6.786;2023-11-19T04:33:54;10.40;99.90
36856;DHT22;22788;51.434;6.786;2023-11-19T04:36:20;10.40;99.90
36856;DHT22;22788;51.434;6.786;2023-11-19T04:38:45;10.40;99.90
36856;DHT22;22788;51.434;6.786;2023-11-19T04:41:11;10.40;99.90
36856;DHT22;22788;51.434;6.786;2023-11-19T04:43:36;10.40;99.90
36856;DHT22;22788;51.434;6.786;2023-11-19T04:46:05;10.50;99.90
36856;DHT22;22788;51.434;6.786;2023-11-19T04:48:31;10.40;99.90
36856;DHT22;22788;51.434;6.786;2023-11-19T04:50:56;10.40;99.90
36856;DHT22;22788;51.434;6.786;2023-11-19T04:53:22;10.40;99.90
36856;DHT22;22788;51.434;6.786;2023-11-19T04:55:47;10.60;99.90
36856;DHT22;22788;51.434;6.786;2023-11-19T04:58:13;10.60;99.90
36856;DHT22;22788;51.434;6.786;2023-11-19T05:00:39;10.50;99.90
36856;DHT22;22788;51.434;6.786;2023-11-19T05:03:06;10.40;99.90
36856;DHT22;22788;51.434;6.786;2023-11-19T05:05:31;10.50;99.90
36856;DHT22;22788;51.434;6.786;2023-11-19T05:07:57;10.40;99.90
36856;DHT22;22788;51.434;6.786;2023-11-19T05:10:22;10.30;99.90
36856;DHT22;22788;51.434;6.786;2023-11-19T05:12:48;10.30;99.90
36856;DHT22;22788;51.434;6.786;2023-11-19T05:15:14;10.40;99.90
36856;DHT22;22788;51.434;6.786;2023-11-19T05:17:39;10.50;99.90
36856;DHT22;22788;51.434;6.786;2023-11-19T05:20:07;10.50;99.90
36856;DHT22;22788;51.434;6.786;2023-11-19T05:22:33;10.40;99.90
36856;DHT22;22788;51.434;6.786;2023-11-19T05:24:59;10.40;99.90
36856;DHT22;22788;51.434;6.786;2023-11-19T05:27:24;10.40;99.90
36856;DHT22;22788;51.434;6.786;2023-11-19T05:29:50;10.30;99.90
36856;DHT22;22788;51.434;6.786;2023-11-19T05:32:16;10.30;99.90
36856;DHT22;22788;51.434;6.786;2023-11-19T05:34:41;10.50;99.90
36856;DHT22;22788;51.434;6.786;2023-11-19T05:37:08;10.40;99.90
36856;DHT22;22788;51.434;6.786;2023-11-19T05:39:34;10.40;99.90
36856;DHT22;22788;51.434;6.786;2023-11-19T05:41:59;10.50;99.90
36856;DHT22;22788;51.434;6.786;2023-11-19T05:44:25;10.50;99.90
36856;DHT22;22788;51.434;6.786;2023-11-19T05:46:51;10.50;99.90
36856;DHT22;22788;51.434;6.786;2023-11-19T05:49:16;10.50;99.90
36856;DHT22;22788;51.434;6.786;2023-11-19T05:51:42;10.60;99.90
36856;DHT22;22788;51.434;6.786;2023-11-19T05:54:09;10.60;99.90
36856;DHT22;22788;51.434;6.786;2023-11-19T05:56:35;10.50;99.90
36856;DHT22;22788;51.434;6.786;2023-11-19T05:59:01;10.40;99.90
36856;DHT22;22788;51.434;6.786;2023-11-19T06:01:27;10.40;99.90
36856;DHT22;22788;51.434;6.786;2023-11-19T06:03:52;10.40;99.90
36856;DHT22;22788;51.434;6.786;2023-11-19T06:06:18;10.40;99.90
36856;DHT22;22788;51.434;6.786;2023-11-19T06:08:44;10.40;99.90
36856;DHT22;22788;51.434;6.786;2023-11-19T06:11:11;10.40;99.90
36856;DHT22;22788;51.434;6.786;2023-11-19T06:13:37;10.40;99.90
36856;DHT22;22788;51.434;6.786;2023-11-19T06:16:03;10.50;99.90
36856;DHT22;22788;51.434;6.786;2023-11-19T06:18:28;10.50;99.90
36856;DHT22;22788;51.434;6.786;2023-11-19T06:20:54;10.60;99.90
36856;DHT22;22788;51.434;6.786;2023-11-19T06:23:20;10.50;99.90
36856;DHT22;22788;51.434;6.786;2023-11-19T06:25:45;10.40;99.90
36856;DHT22;22788;51.434;6.786;2023-11-19T06:28:12;10.40;99.90
36856;DHT22;22788;51.434;6.786;2023-11-19T06:30:38;10.40;99.90
36856;DHT22;22788;51.434;6.786;2023-11-19T06:33:03;10.30;99.90
36856;DHT22;22788;51.434;6.786;2023-11-19T06:35:29;10.30;99.90
36856;DHT22;22788;51.434;6.786;2023-11-19T06:37:55;10.40;99.90
36856;DHT22;22788;51.434;6.786;2023-11-19T06:40:20;10.40;99.90
36856;DHT22;22788;51.434;6.786;2023-11-19T06:42:46;10.50;99.90
36856;DHT22;22788;51.434;6.786;2023-11-19T06:45:13;10.40;99.90
36856;DHT22;22788;51.434;6.786;2023-11-19T06:47:39;10.40;99.90
36856;DHT22;22788;51.434;6.786;2023-11-19T06:50:06;10.30;99.90
36856;DHT22;22788;51.434;6.786;2023-11-19T06:52:31;10.30;99.90
36856;DHT22;22788;51.434;6.786;2023-11-19T06:54:57;10.30;99.90
36856;DHT22;22788;51.434;6.786;2023-11-19T06:57:23;10.40;99.90
36856;DHT22;22788;51.434;6.786;2023-11-19T06:59:48;10.40;99.90
36856;DHT22;22788;51.434;6.786;2023-11-19T07:02:17;10.30;99.90
36856;DHT22;22788;51.434;6.786;2023-11-19T07:04:43;10.30;99.90
36856;DHT22;22788;51.434;6.786;2023-11-19T07:07:08;10.30;99.90
36856;DHT22;22788;51.434;6.786;2023-11-19T07:09:34;10.50;99.90
36856;DHT22;22788;51.434;6.786;2023-11-19T07:11:59;10.50;99.90
36856;DHT22;22788;51.434;6.786;2023-11-19T07:14:25;10.30;99.90
36856;DHT22;22788;51.434;6.786;2023-11-19T07:16:51;10.30;99.90
36856;DHT22;22788;51.434;6.786;2023-11-19T07:19:18;10.30;99.90
36856;DHT22;22788;51.434;6.786;2023-11-19T07:21:43;10.30;99.90
36856;DHT22;22788;51.434;6.786;2023-11-19T07:24:09;10.30;99.90
36856;DHT22;22788;51.434;6.786;2023-11-19T07:26:35;10.30;99.90
36856;DHT22;22788;51.434;6.786;2023-11-19T07:29:01;10.30;99.90
36856;DHT22;22788;51.434;6.786;2023-11-19T07:31:26;10.20;99.90
36856;DHT22;22788;51.434;6.786;2023-11-19T07:33:52;10.30;99.90
36856;DHT22;22788;51.434;6.786;2023-11-19T07:36:19;10.40;99.90
36856;DHT22;22788;51.434;6.786;2023-11-19T07:38:46;10.40;99.90
36856;DHT22;22788;51.434;6.786;2023-11-19T07:41:11;10.40;99.90
36856;DHT22;22788;51.434;6.786;2023-11-19T07:43:37;10.30;99.90
36856;DHT22;22788;51.434;6.786;2023-11-19T07:46:03;10.30;99.90
36856;DHT22;22788;51.434;6.786;2023-11-19T07:48:28;10.30;99.90
36856;DHT22;22788;51.434;6.786;2023-11-19T07:50:54;10.30;99.90
36856;DHT22;22788;51.434;6.786;2023-11-19T07:53:21;10.30;99.90
36856;DHT22;22788;51.434;6.786;2023-11-19T07:55:46;10.30;99.90
36856;DHT22;22788;51.434;6.786;2023-11-19T07:58:12;10.30;99.90
36856;DHT22;22788;51.434;6.786;2023-11-19T08:00:38;10.30;99.90
36856;DHT22;22788;51.434;6.786;2023-11-19T08:03:04;10.20;99.90
36856;DHT22;22788;51.434;6.786;2023-11-19T08:05:30;10.30;99.90
36856;DHT22;22788;51.434;6.786;2023-11-19T08:07:56;10.30;99.90
36856;DHT22;22788;51.434;6.786;2023-11-19T08:10:23;10.30;99.90
36856;DHT22;22788;51.434;6.786;2023-11-19T08:12:49;10.30;99.90
36856;DHT22;22788;51.434;6.786;2023-11-19T08:15:15;10.30;99.90
36856;DHT22;22788;51.434;6.786;2023-11-19T08:17:40;10.30;99.90
36856;DHT22;22788;51.434;6.786;2023-11-19T08:20:07;10.40;99.90
36856;DHT22;22788;51.434;6.786;2023-11-19T08:22:33;10.40;99.90
36856;DHT22;22788;51.434;6.786;2023-11-19T08:24:59;10.40;99.90
36856;DHT22;22788;51.434;6.786;2023-11-19T08:27:26;10.50;99.90
36856;DHT22;22788;51.434;6.786;2023-11-19T08:29:52;10.50;99.90
36856;DHT22;22788;51.434;6.786;2023-11-19T08:32:17;10.50;99.90
36856;DHT22;22788;51.434;6.786;2023-11-19T08:34:43;10.50;99.90
36856;DHT22;22788;51.434;6.786;2023-11-19T08:37:09;10.50;99.90
36856;DHT22;22788;51.434;6.786;2023-11-19T08:39:34;10.50;99.90
36856;DHT22;22788;51.434;6.786;2023-11-19T08:42:00;10.50;99.90
36856;DHT22;22788;51.434;6.786;2023-11-19T08:44:27;10.50;99.90
36856;DHT22;22788;51.434;6.786;2023-11-19T08:46:53;10.50;99.90
36856;DHT22;22788;51.434;6.786;2023-11-19T08:49:18;10.50;99.90
36856;DHT22;22788;51.434;6.786;2023-11-19T08:51:44;10.50;99.90
36856;DHT22;22788;51.434;6.786;2023-11-19T08:54:09;10.60;99.90
36856;DHT22;22788;51.434;6.786;2023-11-19T08:56:35;10.60;99.90
36856;DHT22;22788;51.434;6.786;2023-11-19T08:59:01;10.60;99.90
36856;DHT22;22788;51.434;6.786;2023-11-19T09:01:28;10.60;99.90
36856;DHT22;22788;51.434;6.786;2023-11-19T09:03:53;10.60;99.90
36856;DHT22;22788;51.434;6.786;2023-11-19T09:06:19;10.60;99.90
36856;DHT22;22788;51.434;6.786;2023-11-19T09:08:44;10.60;99.90
36856;DHT22;22788;51.434;6.786;2023-11-19T09:11:10;10.70;99.90
36856;DHT22;22788;51.434;6.786;2023-11-19T09:13:36;10.70;99.90
36856;DHT22;22788;51.434;6.786;2023-11-19T09:16:01;10.70;99.90
36856;DHT22;22788;51.434;6.786;2023-11-19T09:18:28;11.30;99.90
36856;DHT22;22788;51.434;6.786;2023-11-19T09:20:54;10.90;99.90
36856;DHT22;22788;51.434;6.786;2023-11-19T09:23:19;10.80;99.90
36856;DHT22;22788;51.434;6.786;2023-11-19T09:25:45;10.90;99.90
36856;DHT22;22788;51.434;6.786;2023-11-19T09:28:11;10.80;99.90
36856;DHT22;22788;51.434;6.786;2023-11-19T09:30:36;10.80;99.90
36856;DHT22;22788;51.434;6.786;2023-11-19T09:33:02;10.80;99.90
36856;DHT22;22788;51.434;6.786;2023-11-19T09:35:29;10.80;99.90
36856;DHT22;22788;51.434;6.786;2023-11-19T09:37:55;10.90;99.90
36856;DHT22;22788;51.434;6.786;2023-11-19T09:40:20;11.00;99.90
36856;DHT22;22788;51.434;6.786;2023-11-19T09:42:46;10.80;99.90
36856;DHT22;22788;51.434;6.786;2023-11-19T09:45:14;10.90;99.90
36856;DHT22;22788;51.434;6.786;2023-11-19T09:47:40;10.90;99.90
36856;DHT22;22788;51.434;6.786;2023-11-19T09:50:06;11.00;99.90
36856;DHT22;22788;51.434;6.786;2023-11-19T11:36:24;11.80;99.90
36856;DHT22;22788;51.434;6.786;2023-11-19T11:46:53;12.20;99.90
36856;DHT22;22788;51.434;6.786;2023-11-19T11:59:36;12.30;99.90
36856;DHT22;22788;51.434;6.786;2023-11-19T12:02:03;12.10;99.90
36856;DHT22;22788;51.434;6.786;2023-11-19T12:07:03;12.20;99.90
36856;DHT22;22788;51.434;6.786;2023-11-19T12:09:29;12.10;99.90
36856;DHT22;22788;51.434;6.786;2023-11-19T12:12:07;12.10;99.90
36856;DHT22;22788;51.434;6.786;2023-11-19T12:15:03;12.10;99.90
36856;DHT22;22788;51.434;6.786;2023-11-19T12:17:43;12.10;99.90
36856;DHT22;22788;51.434;6.786;2023-11-19T12:20:10;12.10;99.90
36856;DHT22;22788;51.434;6.786;2023-11-19T12:22:37;12.00;99.90
36856;DHT22;22788;51.434;6.786;2023-11-19T12:25:04;12.10;99.90
36856;DHT22;22788;51.434;6.786;2023-11-19T12:27:30;12.10;99.90
36856;DHT22;22788;51.434;6.786;2023-11-19T12:29:56;11.90;99.90
36856;DHT22;22788;51.434;6.786;2023-11-19T12:32:22;12.10;99.90
36856;DHT22;22788;51.434;6.786;2023-11-19T12:34:48;12.10;99.90
36856;DHT22;22788;51.434;6.786;2023-11-19T12:37:15;11.90;99.90
36856;DHT22;22788;51.434;6.786;2023-11-19T12:39:40;12.00;99.90
36856;DHT22;22788;51.434;6.786;2023-11-19T12:42:06;11.80;99.90
36856;DHT22;22788;51.434;6.786;2023-11-19T12:44:32;11.80;99.90
36856;DHT22;22788;51.434;6.786;2023-11-19T12:47:04;12.10;99.90
36856;DHT22;22788;51.434;6.786;2023-11-19T12:49:30;11.70;99.90
36856;DHT22;22788;51.434;6.786;2023-11-19T12:51:56;11.70;99.90
36856;DHT22;22788;51.434;6.786;2023-11-19T12:54:33;11.70;99.90
36856;DHT22;22788;51.434;6.786;2023-11-19T12:56:59;11.80;99.90
36856;DHT22;22788;51.434;6.786;2023-11-19T12:59:24;11.70;99.90
36856;DHT22;22788;51.434;6.786;2023-11-19T13:01:56;11.70;99.90
36856;DHT22;22788;51.434;6.786;2023-11-19T13:04:22;11.80;99.90
36856;DHT22;22788;51.434;6.786;2023-11-19T13:06:47;11.80;99.90
36856;DHT22;22788;51.434;6.786;2023-11-19T13:09:23;11.70;99.90
36856;DHT22;22788;51.434;6.786;2023-11-19T13:11:50;11.70;99.90
36856;DHT22;22788;51.434;6.786;2023-11-19T13:14:16;11.60;99.90
36856;DHT22;22788;51.434;6.786;2023-11-19T13:16:42;11.60;99.90
36856;DHT22;22788;51.434;6.786;2023-11-19T13:19:08;11.60;99.90
36856;DHT22;22788;51.434;6.786;2023-11-19T13:21:33;11.70;99.90
36856;DHT22;22788;51.434;6.786;2023-11-19T13:23:59;11.70;99.90
36856;DHT22;22788;51.434;6.786;2023-11-19T13:26:25;11.70;99.90
36856;DHT22;22788;51.434;6.786;2023-11-19T13:28:52;12.00;99.90
36856;DHT22;22788;51.434;6.786;2023-11-19T13:31:17;11.70;99.90
36856;DHT22;22788;51.434;6.786;2023-11-19T13:33:43;11.60;99.90
36856;DHT22;22788;51.434;6.786;2023-11-19T13:36:09;11.60;99.90
36856;DHT22;22788;51.434;6.786;2023-11-19T13:38:35;11.60;99.90
36856;DHT22;22788;51.434;6.786;2023-11-19T13:41:01;11.60;99.90
36856;DHT22;22788;51.434;6.786;2023-11-19T13:43:27;11.60;99.90
36856;DHT22;22788;51.434;6.786;2023-11-19T13:45:54;11.60;99.90
36856;DHT22;22788;51.434;6.786;2023-11-19T13:48:20;11.60;99.90
36856;DHT22;22788;51.434;6.786;2023-11-19T13:50:45;11.50;99.90
36856;DHT22;22788;51.434;6.786;2023-11-19T13:53:11;11.50;99.90
36856;DHT22;22788;51.434;6.786;2023-11-19T13:55:37;11.60;99.90
36856;DHT22;22788;51.434;6.786;2023-11-19T14:01:07;11.60;99.90
36856;DHT22;22788;51.434;6.786;2023-11-19T14:03:33;11.60;99.90
36856;DHT22;22788;51.434;6.786;2023-11-19T14:05:59;11.60;99.90
36856;DHT22;22788;51.434;6.786;2023-11-19T14:08:24;11.70;99.90
36856;DHT22;22788;51.434;6.786;2023-11-19T14:10:50;11.70;99.90
36856;DHT22;22788;51.434;6.786;2023-11-19T14:13:15;11.60;99.90
36856;DHT22;22788;51.434;6.786;2023-11-19T14:15:41;11.60;99.90
36856;DHT22;22788;51.434;6.786;2023-11-19T14:18:08;11.60;99.90
36856;DHT22;22788;51.434;6.786;2023-11-19T14:20:34;11.40;99.90
36856;DHT22;22788;51.434;6.786;2023-11-19T14:22:59;11.50;99.90
36856;DHT22;22788;51.434;6.786;2023-11-19T14:25:25;11.50;99.90
36856;DHT22;22788;51.434;6.786;2023-11-19T14:27:51;11.50;99.90
36856;DHT22;22788;51.434;6.786;2023-11-19T14:30:16;11.40;99.90
36856;DHT22;22788;51.434;6.786;2023-11-19T14:32:42;11.40;99.90
36856;DHT22;22788;51.434;6.786;2023-11-19T14:35:10;11.50;99.90
36856;DHT22;22788;51.434;6.786;2023-11-19T14:37:36;11.50;99.90
36856;DHT22;22788;51.434;6.786;2023-11-19T14:40:02;11.50;99.90
36856;DHT22;22788;51.434;6.786;2023-11-19T14:42:27;11.50;99.90
36856;DHT22;22788;51.434;6.786;2023-11-19T14:44:53;11.60;99.90
36856;DHT22;22788;51.434;6.786;2023-11-19T14:47:19;11.60;99.90
36856;DHT22;22788;51.434;6.786;2023-11-19T14:49:45;11.50;99.90
36856;DHT22;22788;51.434;6.786;2023-11-19T14:52:12;11.50;99.90
36856;DHT22;22788;51.434;6.786;2023-11-19T14:54:37;11.50;99.90
36856;DHT22;22788;51.434;6.786;2023-11-19T14:57:03;11.40;99.90
36856;DHT22;22788;51.434;6.786;2023-11-19T14:59:29;11.50;99.90
36856;DHT22;22788;51.434;6.786;2023-11-19T15:01:55;11.40;99.90
36856;DHT22;22788;51.434;6.786;2023-11-19T15:04:20;11.40;99.90
36856;DHT22;22788;51.434;6.786;2023-11-19T15:06:46;11.40;99.90
36856;DHT22;22788;51.434;6.786;2023-11-19T15:09:13;11.40;99.90
36856;DHT22;22788;51.434;6.786;2023-11-19T15:11:38;11.40;99.90
36856;DHT22;22788;51.434;6.786;2023-11-19T15:14:04;11.30;99.90
36856;DHT22;22788;51.434;6.786;2023-11-19T15:16:29;11.40;99.90
36856;DHT22;22788;51.434;6.786;2023-11-19T15:18:55;11.40;99.90
36856;DHT22;22788;51.434;6.786;2023-11-19T15:21:21;11.40;99.90
36856;DHT22;22788;51.434;6.786;2023-11-19T15:23:46;11.30;99.90
36856;DHT22;22788;51.434;6.786;2023-11-19T15:26:13;11.30;99.90
36856;DHT22;22788;51.434;6.786;2023-11-19T15:28:39;11.30;99.90
36856;DHT22;22788;51.434;6.786;2023-11-19T15:31:04;11.30;99.90
36856;DHT22;22788;51.434;6.786;2023-11-19T15:33:30;11.30;99.90
36856;DHT22;22788;51.434;6.786;2023-11-19T15:35:55;11.40;99.90
36856;DHT22;22788;51.434;6.786;2023-11-19T15:38:21;11.50;99.90
36856;DHT22;22788;51.434;6.786;2023-11-19T15:40:47;11.20;99.90
36856;DHT22;22788;51.434;6.786;2023-11-19T15:43:14;11.20;99.90
36856;DHT22;22788;51.434;6.786;2023-11-19T15:45:39;11.20;99.90
36856;DHT22;22788;51.434;6.786;2023-11-19T15:48:05;11.20;99.90
36856;DHT22;22788;51.434;6.786;2023-11-19T15:50:31;11.20;99.90
36856;DHT22;22788;51.434;6.786;2023-11-19T15:52:56;11.20;99.90
36856;DHT22;22788;51.434;6.786;2023-11-19T15:55:22;11.20;99.90
36856;DHT22;22788;51.434;6.786;2023-11-19T15:57:48;11.00;99.90
36856;DHT22;22788;51.434;6.786;2023-11-19T16:00:16;11.20;99.90
36856;DHT22;22788;51.434;6.786;2023-11-19T16:02:42;11.30;99.90
36856;DHT22;22788;51.434;6.786;2023-11-19T16:05:08;11.20;99.90
36856;DHT22;22788;51.434;6.786;2023-11-19T16:07:34;11.20;99.90
36856;DHT22;22788;51.434;6.786;2023-11-19T16:10:00;11.20;99.90
36856;DHT22;22788;51.434;6.786;2023-11-19T16:12:25;11.20;99.90
36856;DHT22;22788;51.434;6.786;2023-11-19T16:14:51;11.10;99.90
36856;DHT22;22788;51.434;6.786;2023-11-19T16:17:18;11.10;99.90
36856;DHT22;22788;51.434;6.786;2023-11-19T16:19:43;11.10;99.90
36856;DHT22;22788;51.434;6.786;2023-11-19T16:22:09;11.10;99.90
36856;DHT22;22788;51.434;6.786;2023-11-19T16:24:35;11.20;99.90
36856;DHT22;22788;51.434;6.786;2023-11-19T16:27:00;11.10;99.90
36856;DHT22;22788;51.434;6.786;2023-11-19T16:29:26;11.20;99.90
36856;DHT22;22788;51.434;6.786;2023-11-19T16:31:51;11.20;99.90
36856;DHT22;22788;51.434;6.786;2023-11-19T16:34:18;12.00;99.90
36856;DHT22;22788;51.434;6.786;2023-11-19T16:36:44;11.20;99.90
36856;DHT22;22788;51.434;6.786;2023-11-19T16:39:11;11.10;99.90
36856;DHT22;22788;51.434;6.786;2023-11-19T16:41:36;11.20;99.90
36856;DHT22;22788;51.434;6.786;2023-11-19T16:44:02;11.20;99.90
36856;DHT22;22788;51.434;6.786;2023-11-19T16:46:28;11.20;99.90
36856;DHT22;22788;51.434;6.786;2023-11-19T16:48:53;11.10;99.90
36856;DHT22;22788;51.434;6.786;2023-11-19T16:51:20;11.10;99.90
36856;DHT22;22788;51.434;6.786;2023-11-19T16:53:46;12.00;99.90
36856;DHT22;22788;51.434;6.786;2023-11-19T16:56:12;11.10;99.90
36856;DHT22;22788;51.434;6.786;2023-11-19T16:58:38;11.10;99.90
36856;DHT22;22788;51.434;6.786;2023-11-19T17:01:04;11.10;99.90
36856;DHT22;22788;51.434;6.786;2023-11-19T17:03:29;11.10;99.90
36856;DHT22;22788;51.434;6.786;2023-11-19T17:05:55;11.10;99.90
36856;DHT22;22788;51.434;6.786;2023-11-19T17:08:22;11.10;99.90
36856;DHT22;22788;51.434;6.786;2023-11-19T17:10:48;11.20;99.90
36856;DHT22;22788;51.434;6.786;2023-11-19T17:13:13;11.00;99.90
36856;DHT22;22788;51.434;6.786;2023-11-19T17:15:39;11.00;99.90
36856;DHT22;22788;51.434;6.786;2023-11-19T17:18:04;11.00;99.90
36856;DHT22;22788;51.434;6.786;2023-11-19T17:20:30;11.30;99.90
36856;DHT22;22788;51.434;6.786;2023-11-19T17:22:56;11.10;99.90
36856;DHT22;22788;51.434;6.786;2023-11-19T17:25:23;11.10;99.90
36856;DHT22;22788;51.434;6.786;2023-11-19T17:27:48;11.10;99.90
36856;DHT22;22788;51.434;6.786;2023-11-19T17:30:14;11.20;99.90
36856;DHT22;22788;51.434;6.786;2023-11-19T17:32:40;11.10;99.90
36856;DHT22;22788;51.434;6.786;2023-11-19T17:35:06;11.20;99.90
36856;DHT22;22788;51.434;6.786;2023-11-19T17:37:31;11.10;99.90
36856;DHT22;22788;51.434;6.786;2023-11-19T17:39:57;11.00;99.90
36856;DHT22;22788;51.434;6.786;2023-11-19T17:42:24;11.00;99.90
36856;DHT22;22788;51.434;6.786;2023-11-19T17:44:50;11.10;99.90
36856;DHT22;22788;51.434;6.786;2023-11-19T17:47:15;11.00;99.90
36856;DHT22;22788;51.434;6.786;2023-11-19T17:49:41;11.00;99.90
36856;DHT22;22788;51.434;6.786;2023-11-19T17:52:07;11.10;99.90
36856;DHT22;22788;51.434;6.786;2023-11-19T17:54:32;11.00;99.90
36856;DHT22;22788;51.434;6.786;2023-11-19T17:56:58;10.90;99.90
36856;DHT22;22788;51.434;6.786;2023-11-19T17:59:25;11.00;99.90
36856;DHT22;22788;51.434;6.786;2023-11-19T18:01:51;11.00;99.90
36856;DHT22;22788;51.434;6.786;2023-11-19T18:04:16;11.00;99.90